Flint, MI (48557)

3:52 PM EST on December 04, 2016 (GMT -0500)
Dave Grand Blanc | | Change Station

Elev 797 ft 42.95 °N, 83.67 °W | Updated 2 seconds ago

Overcast
Overcast
38.5 °F
Feels Like 38 °F
N
2.9
Wind Variable Wind from SSW
Gusts 4.0 mph

Today
High -- | Low -- °F
--% Chance of Precip.
Yesterday
High -- | Low -- °F
Precip. -- in
Pressure 30.07 in
Visibility 10.0 miles
Clouds Mostly Cloudy 3000 ft
Overcast 10000 ft
Windchill 38 °F
Dew Point 30 °F
Humidity 71%
Rainfall 0.00 in
Snow Depth Not available.
7:49 AM 5:00 PM
Waxing Crescent, 25% visible
METAR KFNT 041953Z 12008KT 10SM BKN030 OVC100 03/M03 A3005 RMK AO2 SLP183 T00281033
Pressure 30.07 in
Visibility 10.0 miles
Clouds Mostly Cloudy 3000 ft
Overcast 10000 ft
Windchill 38 °F
Dew Point 30 °F
Humidity 71%
Rainfall 0.00 in
Snow Depth Not available.
7:49 AM 5:00 PM
Waxing Crescent, 25% visible
METAR KFNT 041953Z 12008KT 10SM BKN030 OVC100 03/M03 A3005 RMK AO2 SLP183 T00281033

10-Day Weather Forecast

Almanac

Astronomy

Dec. 04, 2016 Rise Set
Actual Time
Civil Twilight
Nautical Twilight
Astronomical Twilight
Moon
Length of Visible Light
Length of Day
Tomorrow will be .
, % of the Moon is Illuminated

Today's Extremes

State Highs State Lows

Community

WunderPhotos

Upload Photos

1,955,667 photos uploaded!

WunderBlog® & News

Nearby

Air Quality

  Air Quality AQ Index Pollutant
Not available.

Snow Depth

Station Depth Elevation

Earthquake Activity

City Distance Mag. Time & Date
Minimum magnitude displayed is 2.5.

Coastal Water Temperatures

Place Temperature

Stations

Nearby Weather Stations

Station Location Temp. Windchill Dew Point Humidity Wind Precip. Elev Updated Type
                   

Watches & Warnings

There are currently no watches in effect.